sensor_id;sensor_type;location;lat;lon;timestamp;pressure;altitude;pressure_sealevel;temperature;humidity
40490;BME280;26196;52.302;10.572;2024-01-15T00:00:10;98687.94;;;8.59;52.36
40490;BME280;26196;52.302;10.572;2024-01-15T00:04:12;98685.63;;;8.53;53.16
40490;BME280;26196;52.302;10.572;2024-01-15T00:08:14;98680.84;;;8.44;52.85
40490;BME280;26196;52.302;10.572;2024-01-15T00:12:18;98674.72;;;8.45;52.49
40490;BME280;26196;52.302;10.572;2024-01-15T00:16:19;98675.47;;;8.47;52.45
40490;BME280;26196;52.302;10.572;2024-01-15T00:20:21;98660.53;;;8.31;52.43
40490;BME280;26196;52.302;10.572;2024-01-15T00:24:34;98667.13;;;8.40;53.14
40490;BME280;26196;52.302;10.572;2024-01-15T00:28:37;98662.09;;;8.36;52.62
40490;BME280;26196;52.302;10.572;2024-01-15T00:32:39;98668.22;;;8.35;53.15
40490;BME280;26196;52.302;10.572;2024-01-15T00:36:40;98663.44;;;8.25;52.95
40490;BME280;26196;52.302;10.572;2024-01-15T00:40:42;98667.75;;;8.26;53.11
40490;BME280;26196;52.302;10.572;2024-01-15T00:44:44;98660.97;;;8.22;52.92
40490;BME280;26196;52.302;10.572;2024-01-15T00:48:45;98659.56;;;8.15;53.25
40490;BME280;26196;52.302;10.572;2024-01-15T00:52:48;98664.13;;;8.29;53.12
40490;BME280;26196;52.302;10.572;2024-01-15T00:57:15;98661.31;;;8.33;53.21
40490;BME280;26196;52.302;10.572;2024-01-15T01:01:16;98648.06;;;8.38;52.82
40490;BME280;26196;52.302;10.572;2024-01-15T01:05:18;98640.41;;;8.35;53.20
40490;BME280;26196;52.302;10.572;2024-01-15T01:09:20;98649.06;;;8.36;53.73
40490;BME280;26196;52.302;10.572;2024-01-15T01:13:21;98657.19;;;8.29;53.45
40490;BME280;26196;52.302;10.572;2024-01-15T01:17:58;98652.81;;;8.30;53.13
40490;BME280;26196;52.302;10.572;2024-01-15T01:21:59;98660.84;;;8.25;53.19
40490;BME280;26196;52.302;10.572;2024-01-15T01:26:01;98646.03;;;8.26;53.05
40490;BME280;26196;52.302;10.572;2024-01-15T01:30:18;98652.81;;;8.30;52.77
40490;BME280;26196;52.302;10.572;2024-01-15T01:34:19;98639.00;;;8.28;53.46
40490;BME280;26196;52.302;10.572;2024-01-15T01:38:21;98644.84;;;8.33;53.49
40490;BME280;26196;52.302;10.572;2024-01-15T01:42:25;98622.81;;;8.21;53.33
40490;BME280;26196;52.302;10.572;2024-01-15T01:46:27;98641.06;;;8.40;53.66
40490;BME280;26196;52.302;10.572;2024-01-15T01:51:01;98648.88;;;8.40;53.26
40490;BME280;26196;52.302;10.572;2024-01-15T01:55:05;98642.00;;;8.38;53.56
40490;BME280;26196;52.302;10.572;2024-01-15T01:59:09;98643.06;;;8.33;53.96
40490;BME280;26196;52.302;10.572;2024-01-15T02:03:14;98659.31;;;8.40;53.63
40490;BME280;26196;52.302;10.572;2024-01-15T02:07:16;98644.69;;;8.36;53.38
40490;BME280;26196;52.302;10.572;2024-01-15T02:11:19;98633.47;;;8.34;53.24
40490;BME280;26196;52.302;10.572;2024-01-15T02:15:20;98607.72;;;8.28;53.38
40490;BME280;26196;52.302;10.572;2024-01-15T02:19:22;98621.59;;;8.28;53.51
40490;BME280;26196;52.302;10.572;2024-01-15T02:23:24;98617.31;;;8.27;53.29
40490;BME280;26196;52.302;10.572;2024-01-15T02:27:25;98604.63;;;8.20;53.27
40490;BME280;26196;52.302;10.572;2024-01-15T02:31:27;98602.44;;;8.29;53.42
40490;BME280;26196;52.302;10.572;2024-01-15T02:35:29;98593.84;;;8.27;53.23
40490;BME280;26196;52.302;10.572;2024-01-15T02:39:30;98591.66;;;8.37;53.53
40490;BME280;26196;52.302;10.572;2024-01-15T02:43:32;98574.03;;;8.23;53.53
40490;BME280;26196;52.302;10.572;2024-01-15T02:47:34;98598.91;;;8.30;53.52
40490;BME280;26196;52.302;10.572;2024-01-15T02:51:35;98586.81;;;8.29;53.72
40490;BME280;26196;52.302;10.572;2024-01-15T02:55:37;98584.03;;;8.32;53.35
40490;BME280;26196;52.302;10.572;2024-01-15T02:59:38;98588.53;;;8.29;53.48
40490;BME280;26196;52.302;10.572;2024-01-15T03:03:40;98569.09;;;8.19;53.48
40490;BME280;26196;52.302;10.572;2024-01-15T03:07:42;98582.81;;;8.22;53.15
40490;BME280;26196;52.302;10.572;2024-01-15T03:11:44;98553.81;;;8.11;53.41
40490;BME280;26196;52.302;10.572;2024-01-15T03:15:55;98555.34;;;8.15;53.23
40490;BME280;26196;52.302;10.572;2024-01-15T03:19:56;98547.97;;;8.06;52.91
40490;BME280;26196;52.302;10.572;2024-01-15T03:24:05;98564.38;;;8.08;53.37
40490;BME280;26196;52.302;10.572;2024-01-15T03:28:07;98565.50;;;8.02;53.28
40490;BME280;26196;52.302;10.572;2024-01-15T03:32:09;98564.88;;;7.97;53.21
40490;BME280;26196;52.302;10.572;2024-01-15T03:36:10;98547.00;;;7.89;52.86
40490;BME280;26196;52.302;10.572;2024-01-15T03:40:12;98557.16;;;7.96;52.95
40490;BME280;26196;52.302;10.572;2024-01-15T03:44:14;98552.72;;;7.98;53.47
40490;BME280;26196;52.302;10.572;2024-01-15T03:48:15;98556.84;;;8.02;53.36
40490;BME280;26196;52.302;10.572;2024-01-15T03:52:17;98564.66;;;8.02;52.98
40490;BME280;26196;52.302;10.572;2024-01-15T03:56:19;98566.66;;;7.97;53.31
40490;BME280;26196;52.302;10.572;2024-01-15T04:00:20;98567.47;;;7.97;53.25
40490;BME280;26196;52.302;10.572;2024-01-15T04:04:22;98566.78;;;7.94;53.56
40490;BME280;26196;52.302;10.572;2024-01-15T04:08:25;98566.22;;;7.87;52.77
40490;BME280;26196;52.302;10.572;2024-01-15T04:12:27;98572.44;;;7.84;52.96
40490;BME280;26196;52.302;10.572;2024-01-15T04:16:39;98568.94;;;7.85;53.47
40490;BME280;26196;52.302;10.572;2024-01-15T04:20:41;98567.16;;;7.86;53.89
40490;BME280;26196;52.302;10.572;2024-01-15T04:24:48;98576.59;;;7.88;53.85
40490;BME280;26196;52.302;10.572;2024-01-15T04:28:49;98568.78;;;7.88;53.76
40490;BME280;26196;52.302;10.572;2024-01-15T04:32:51;98571.06;;;7.95;53.29
40490;BME280;26196;52.302;10.572;2024-01-15T04:37:03;98571.03;;;7.96;53.42
40490;BME280;26196;52.302;10.572;2024-01-15T04:41:04;98564.97;;;7.96;53.54
40490;BME280;26196;52.302;10.572;2024-01-15T04:45:24;98563.56;;;7.88;53.22
40490;BME280;26196;52.302;10.572;2024-01-15T04:54:18;98574.00;;;7.88;53.77
40490;BME280;26196;52.302;10.572;2024-01-15T04:58:39;98571.38;;;7.88;53.67
40490;BME280;26196;52.302;10.572;2024-01-15T05:02:45;98563.72;;;7.85;53.88
40490;BME280;26196;52.302;10.572;2024-01-15T05:06:59;98571.78;;;7.79;53.92
40490;BME280;26196;52.302;10.572;2024-01-15T05:11:13;98571.09;;;7.76;53.82
40490;BME280;26196;52.302;10.572;2024-01-15T05:15:19;98563.88;;;7.82;54.07
40490;BME280;26196;52.302;10.572;2024-01-15T05:19:28;98564.56;;;7.86;53.98
40490;BME280;26196;52.302;10.572;2024-01-15T05:23:35;98560.34;;;7.83;54.11
40490;BME280;26196;52.302;10.572;2024-01-15T05:27:51;98562.47;;;7.75;54.17
40490;BME280;26196;52.302;10.572;2024-01-15T05:32:10;98572.78;;;7.77;53.76
40490;BME280;26196;52.302;10.572;2024-01-15T05:36:14;98566.69;;;7.78;53.81
40490;BME280;26196;52.302;10.572;2024-01-15T05:40:20;98546.97;;;7.72;54.30
40490;BME280;26196;52.302;10.572;2024-01-15T05:44:21;98543.59;;;7.70;54.04
40490;BME280;26196;52.302;10.572;2024-01-15T05:48:23;98527.97;;;7.70;54.40
40490;BME280;26196;52.302;10.572;2024-01-15T05:52:25;98551.06;;;7.78;54.20
40490;BME280;26196;52.302;10.572;2024-01-15T05:56:29;98552.66;;;7.80;54.08
40490;BME280;26196;52.302;10.572;2024-01-15T06:00:31;98548.09;;;7.85;54.59
40490;BME280;26196;52.302;10.572;2024-01-15T06:04:35;98549.75;;;7.86;54.29
40490;BME280;26196;52.302;10.572;2024-01-15T06:08:37;98533.81;;;7.75;54.53
40490;BME280;26196;52.302;10.572;2024-01-15T06:12:39;98543.94;;;7.81;54.69
40490;BME280;26196;52.302;10.572;2024-01-15T06:16:41;98552.56;;;7.82;54.66
40490;BME280;26196;52.302;10.572;2024-01-15T06:20:42;98542.75;;;7.70;54.56
40490;BME280;26196;52.302;10.572;2024-01-15T06:24:44;98555.13;;;7.83;54.42
40490;BME280;26196;52.302;10.572;2024-01-15T06:28:45;98544.59;;;7.67;54.29
40490;BME280;26196;52.302;10.572;2024-01-15T06:32:49;98538.38;;;7.70;55.01
40490;BME280;26196;52.302;10.572;2024-01-15T06:36:51;98556.22;;;7.97;54.64
40490;BME280;26196;52.302;10.572;2024-01-15T06:40:58;98563.16;;;8.15;54.84
40490;BME280;26196;52.302;10.572;2024-01-15T06:45:00;98559.97;;;8.27;54.36
40490;BME280;26196;52.302;10.572;2024-01-15T06:49:01;98559.97;;;8.27;54.49
40490;BME280;26196;52.302;10.572;2024-01-15T06:53:03;98567.13;;;8.41;55.00
40490;BME280;26196;52.302;10.572;2024-01-15T06:57:06;98559.25;;;8.43;54.64
40490;BME280;26196;52.302;10.572;2024-01-15T07:01:09;98562.25;;;8.52;54.57
40490;BME280;26196;52.302;10.572;2024-01-15T07:05:30;98575.03;;;8.57;54.18
40490;BME280;26196;52.302;10.572;2024-01-15T07:09:36;98569.66;;;8.60;53.92
40490;BME280;26196;52.302;10.572;2024-01-15T07:13:41;98576.56;;;8.61;53.65
40490;BME280;26196;52.302;10.572;2024-01-15T07:17:50;98571.13;;;8.66;54.13
40490;BME280;26196;52.302;10.572;2024-01-15T07:22:00;98583.19;;;8.68;54.06
40490;BME280;26196;52.302;10.572;2024-01-15T07:26:17;98581.78;;;8.61;53.50
40490;BME280;26196;52.302;10.572;2024-01-15T07:30:31;98599.28;;;8.76;53.82
40490;BME280;26196;52.302;10.572;2024-01-15T07:34:35;98594.22;;;8.73;53.26
40490;BME280;26196;52.302;10.572;2024-01-15T07:38:38;98602.88;;;8.74;53.13
40490;BME280;26196;52.302;10.572;2024-01-15T07:42:45;98601.97;;;8.75;52.92
40490;BME280;26196;52.302;10.572;2024-01-15T07:46:47;98585.84;;;8.67;53.12
40490;BME280;26196;52.302;10.572;2024-01-15T07:51:04;98592.06;;;8.82;52.74
40490;BME280;26196;52.302;10.572;2024-01-15T07:55:06;98585.16;;;8.81;52.45
40490;BME280;26196;52.302;10.572;2024-01-15T07:59:07;98573.88;;;8.80;52.79
40490;BME280;26196;52.302;10.572;2024-01-15T08:03:09;98589.97;;;8.88;52.58
40490;BME280;26196;52.302;10.572;2024-01-15T08:07:14;98597.56;;;8.93;52.75
40490;BME280;26196;52.302;10.572;2024-01-15T08:11:22;98581.31;;;8.88;52.28
40490;BME280;26196;52.302;10.572;2024-01-15T08:15:24;98596.34;;;9.00;52.49
40490;BME280;26196;52.302;10.572;2024-01-15T08:19:31;98592.03;;;8.99;52.40
40490;BME280;26196;52.302;10.572;2024-01-15T08:23:34;98582.53;;;8.98;52.15
40490;BME280;26196;52.302;10.572;2024-01-15T08:27:36;98584.38;;;8.96;51.57
40490;BME280;26196;52.302;10.572;2024-01-15T08:31:58;98597.78;;;9.06;52.09
40490;BME280;26196;52.302;10.572;2024-01-15T08:40:32;98616.84;;;9.08;51.35
40490;BME280;26196;52.302;10.572;2024-01-15T08:44:34;98598.03;;;9.01;51.49
40490;BME280;26196;52.302;10.572;2024-01-15T08:48:36;98599.56;;;9.05;51.61
40490;BME280;26196;52.302;10.572;2024-01-15T08:52:58;98618.28;;;9.13;51.28
40490;BME280;26196;52.302;10.572;2024-01-15T08:57:04;98614.72;;;9.14;51.12
40490;BME280;26196;52.302;10.572;2024-01-15T09:01:07;98609.50;;;9.14;51.42
40490;BME280;26196;52.302;10.572;2024-01-15T09:05:17;98612.06;;;9.16;51.61
40490;BME280;26196;52.302;10.572;2024-01-15T09:09:18;98614.56;;;9.17;51.04
40490;BME280;26196;52.302;10.572;2024-01-15T09:13:20;98612.22;;;9.13;51.77
40490;BME280;26196;52.302;10.572;2024-01-15T09:17:22;98612.84;;;9.01;51.72
40490;BME280;26196;52.302;10.572;2024-01-15T09:21:34;98624.81;;;9.05;52.11
40490;BME280;26196;52.302;10.572;2024-01-15T09:25:45;98637.16;;;9.01;51.79
40490;BME280;26196;52.302;10.572;2024-01-15T09:29:47;98612.09;;;8.81;51.74
40490;BME280;26196;52.302;10.572;2024-01-15T09:34:02;98638.72;;;8.88;51.56
40490;BME280;26196;52.302;10.572;2024-01-15T09:38:08;98648.53;;;8.83;51.88
40490;BME280;26196;52.302;10.572;2024-01-15T09:42:10;98646.75;;;8.83;51.77
40490;BME280;26196;52.302;10.572;2024-01-15T09:46:12;98641.78;;;8.79;51.47
40490;BME280;26196;52.302;10.572;2024-01-15T09:50:15;98656.19;;;8.86;51.77
40490;BME280;26196;52.302;10.572;2024-01-15T09:54:17;98628.88;;;8.75;51.98
40490;BME280;26196;52.302;10.572;2024-01-15T09:58:20;98637.47;;;8.77;51.67
40490;BME280;26196;52.302;10.572;2024-01-15T10:02:22;98652.69;;;8.87;51.64
40490;BME280;26196;52.302;10.572;2024-01-15T10:06:24;98636.47;;;8.80;52.07
40490;BME280;26196;52.302;10.572;2024-01-15T10:10:29;98637.78;;;8.71;52.18
40490;BME280;26196;52.302;10.572;2024-01-15T10:14:31;98633.56;;;8.69;52.16
40490;BME280;26196;52.302;10.572;2024-01-15T10:18:36;98650.53;;;8.77;52.02
40490;BME280;26196;52.302;10.572;2024-01-15T10:22:45;98650.91;;;8.70;51.84
40490;BME280;26196;52.302;10.572;2024-01-15T10:26:49;98635.41;;;8.67;52.03
40490;BME280;26196;52.302;10.572;2024-01-15T10:31:01;98654.28;;;8.72;52.33
40490;BME280;26196;52.302;10.572;2024-01-15T10:35:07;98639.63;;;8.69;51.93
40490;BME280;26196;52.302;10.572;2024-01-15T10:39:08;98639.63;;;8.69;52.08
40490;BME280;26196;52.302;10.572;2024-01-15T10:43:10;98637.47;;;8.77;52.46
40490;BME280;26196;52.302;10.572;2024-01-15T10:47:19;98649.63;;;8.79;52.53
40490;BME280;26196;52.302;10.572;2024-01-15T10:51:26;98645.63;;;8.71;52.17
40490;BME280;26196;52.302;10.572;2024-01-15T10:55:38;98651.72;;;8.70;52.24
40490;BME280;26196;52.302;10.572;2024-01-15T10:59:40;98626.34;;;8.57;52.58
40490;BME280;26196;52.302;10.572;2024-01-15T11:03:48;98633.72;;;8.66;52.59
40490;BME280;26196;52.302;10.572;2024-01-15T11:07:58;98633.00;;;8.62;52.83
40490;BME280;26196;52.302;10.572;2024-01-15T11:12:13;98642.06;;;8.55;52.76
40490;BME280;26196;52.302;10.572;2024-01-15T11:16:24;98654.19;;;8.56;53.01
40490;BME280;26196;52.302;10.572;2024-01-15T11:25:35;98642.38;;;8.49;53.15
40490;BME280;26196;52.302;10.572;2024-01-15T11:29:40;98624.66;;;8.37;53.06
40490;BME280;26196;52.302;10.572;2024-01-15T11:33:49;98642.66;;;8.43;53.32
40490;BME280;26196;52.302;10.572;2024-01-15T11:41:55;98639.75;;;8.49;53.06
40490;BME280;26196;52.302;10.572;2024-01-15T11:46:01;98628.69;;;8.44;53.57
40490;BME280;26196;52.302;10.572;2024-01-15T11:50:04;98637.25;;;8.47;53.33
40490;BME280;26196;52.302;10.572;2024-01-15T11:54:09;98632.66;;;8.52;53.72
40490;BME280;26196;52.302;10.572;2024-01-15T11:58:20;98629.09;;;8.53;53.50
40490;BME280;26196;52.302;10.572;2024-01-15T12:02:22;98620.66;;;8.48;53.63
40490;BME280;26196;52.302;10.572;2024-01-15T12:06:27;98642.91;;;8.56;53.82
40490;BME280;26196;52.302;10.572;2024-01-15T12:10:30;98629.19;;;8.33;53.91
40490;BME280;26196;52.302;10.572;2024-01-15T12:14:37;98639.75;;;8.49;53.56
40490;BME280;26196;52.302;10.572;2024-01-15T12:18:42;98640.31;;;8.56;53.76
40490;BME280;26196;52.302;10.572;2024-01-15T12:27:11;98611.78;;;8.33;54.06
40490;BME280;26196;52.302;10.572;2024-01-15T12:31:30;98631.59;;;8.38;54.38
40490;BME280;26196;52.302;10.572;2024-01-15T12:40:23;98633.13;;;8.42;53.85
40490;BME280;26196;52.302;10.572;2024-01-15T12:44:25;98621.69;;;8.27;53.94
40490;BME280;26196;52.302;10.572;2024-01-15T12:48:27;98621.59;;;8.28;54.11
40490;BME280;26196;52.302;10.572;2024-01-15T12:52:30;98632.78;;;8.30;53.80
40490;BME280;26196;52.302;10.572;2024-01-15T12:56:33;98633.63;;;8.31;54.00
40490;BME280;26196;52.302;10.572;2024-01-15T13:00:43;98630.50;;;8.24;53.84
40490;BME280;26196;52.302;10.572;2024-01-15T13:04:45;98612.81;;;8.12;53.65
40490;BME280;26196;52.302;10.572;2024-01-15T13:08:47;98643.38;;;8.27;54.29
40490;BME280;26196;52.302;10.572;2024-01-15T13:12:50;98646.75;;;8.29;53.80
40490;BME280;26196;52.302;10.572;2024-01-15T13:16:52;98628.94;;;8.20;53.74
40490;BME280;26196;52.302;10.572;2024-01-15T13:21:06;98639.28;;;8.22;53.74
40490;BME280;26196;52.302;10.572;2024-01-15T13:25:10;98607.91;;;8.06;53.85
40490;BME280;26196;52.302;10.572;2024-01-15T13:29:13;98624.66;;;8.19;54.03
40490;BME280;26196;52.302;10.572;2024-01-15T13:33:21;98636.84;;;8.19;54.09
40490;BME280;26196;52.302;10.572;2024-01-15T13:37:23;98639.16;;;8.25;53.82
40490;BME280;26196;52.302;10.572;2024-01-15T13:41:29;98637.00;;;8.33;54.21
40490;BME280;26196;52.302;10.572;2024-01-15T13:45:47;98652.72;;;8.31;53.46
40490;BME280;26196;52.302;10.572;2024-01-15T13:49:49;98641.69;;;8.26;53.73
40490;BME280;26196;52.302;10.572;2024-01-15T13:53:57;98645.00;;;8.30;54.14
40490;BME280;26196;52.302;10.572;2024-01-15T13:58:10;98636.84;;;8.19;53.98
40490;BME280;26196;52.302;10.572;2024-01-15T14:02:12;98640.84;;;8.07;53.87
40490;BME280;26196;52.302;10.572;2024-01-15T14:06:19;98648.63;;;8.08;54.28
40490;BME280;26196;52.302;10.572;2024-01-15T14:10:21;98658.06;;;8.11;53.73
40490;BME280;26196;52.302;10.572;2024-01-15T14:14:23;98659.72;;;8.12;53.78
40490;BME280;26196;52.302;10.572;2024-01-15T14:18:27;98661.28;;;8.16;53.47
40490;BME280;26196;52.302;10.572;2024-01-15T14:22:35;98653.94;;;8.05;53.57
40490;BME280;26196;52.302;10.572;2024-01-15T14:26:36;98660.03;;;8.06;54.06
40490;BME280;26196;52.302;10.572;2024-01-15T14:30:50;98663.25;;;8.11;53.70
40490;BME280;26196;52.302;10.572;2024-01-15T14:34:55;98655.28;;;8.14;54.11
40490;BME280;26196;52.302;10.572;2024-01-15T14:38:58;98663.81;;;8.18;53.79
40490;BME280;26196;52.302;10.572;2024-01-15T14:43:16;98673.97;;;8.24;53.79
40490;BME280;26196;52.302;10.572;2024-01-15T14:47:18;98659.78;;;8.10;54.18
40490;BME280;26196;52.302;10.572;2024-01-15T14:51:30;98660.84;;;8.06;53.85
40490;BME280;26196;52.302;10.572;2024-01-15T14:55:34;98688.88;;;8.20;53.71
40490;BME280;26196;52.302;10.572;2024-01-15T14:59:36;98681.22;;;8.17;53.91
40490;BME280;26196;52.302;10.572;2024-01-15T15:03:38;98698.66;;;8.34;53.74
40490;BME280;26196;52.302;10.572;2024-01-15T15:07:50;98699.50;;;8.35;54.60
40490;BME280;26196;52.302;10.572;2024-01-15T15:12:08;98700.19;;;8.38;54.71
40490;BME280;26196;52.302;10.572;2024-01-15T15:16:11;98716.31;;;8.48;55.06
40490;BME280;26196;52.302;10.572;2024-01-15T15:20:15;98719.69;;;8.50;55.38
40490;BME280;26196;52.302;10.572;2024-01-15T15:24:18;98716.34;;;8.46;55.11
40490;BME280;26196;52.302;10.572;2024-01-15T15:28:19;98705.78;;;8.30;56.39
40490;BME280;26196;52.302;10.572;2024-01-15T15:32:21;98711.19;;;8.26;57.21
40490;BME280;26196;52.302;10.572;2024-01-15T15:36:22;98715.50;;;8.27;56.34
40490;BME280;26196;52.302;10.572;2024-01-15T15:40:30;98737.06;;;8.30;56.10
40490;BME280;26196;52.302;10.572;2024-01-15T15:44:31;98720.00;;;8.23;56.57
40490;BME280;26196;52.302;10.572;2024-01-15T15:48:59;98745.66;;;8.32;55.78
40490;BME280;26196;52.302;10.572;2024-01-15T16:02:12;98750.94;;;8.31;56.22
40490;BME280;26196;52.302;10.572;2024-01-15T16:06:24;98745.72;;;8.31;56.39
40490;BME280;26196;52.302;10.572;2024-01-15T16:10:43;98749.03;;;8.35;56.04
40490;BME280;26196;52.302;10.572;2024-01-15T16:14:49;98758.91;;;8.28;56.31
40490;BME280;26196;52.302;10.572;2024-01-15T16:18:53;98761.59;;;8.26;55.97
40490;BME280;26196;52.302;10.572;2024-01-15T16:23:30;98769.41;;;8.26;55.98
40490;BME280;26196;52.302;10.572;2024-01-15T16:28:07;98767.84;;;8.22;55.93
40490;BME280;26196;52.302;10.572;2024-01-15T16:32:12;98773.13;;;8.21;55.91
40490;BME280;26196;52.302;10.572;2024-01-15T16:36:26;98782.56;;;8.23;55.47
40490;BME280;26196;52.302;10.572;2024-01-15T16:40:30;98765.63;;;8.13;56.17
40490;BME280;26196;52.302;10.572;2024-01-15T16:44:36;98791.31;;;8.22;55.86
40490;BME280;26196;52.302;10.572;2024-01-15T16:48:41;98803.34;;;8.25;55.88
40490;BME280;26196;52.302;10.572;2024-01-15T16:52:46;98814.97;;;8.18;55.66
40490;BME280;26196;52.302;10.572;2024-01-15T16:56:49;98819.66;;;8.09;55.27
40490;BME280;26196;52.302;10.572;2024-01-15T17:00:55;98827.03;;;8.00;55.33
40490;BME280;26196;52.302;10.572;2024-01-15T17:05:08;98838.38;;;7.99;54.85
40490;BME280;26196;52.302;10.572;2024-01-15T17:09:09;98837.22;;;7.85;54.59
40490;BME280;26196;52.302;10.572;2024-01-15T17:13:11;98851.91;;;7.86;54.82
40490;BME280;26196;52.302;10.572;2024-01-15T17:17:29;98854.66;;;7.83;54.34
40490;BME280;26196;52.302;10.572;2024-01-15T17:21:30;98863.00;;;7.92;54.62
40490;BME280;26196;52.302;10.572;2024-01-15T17:25:32;98865.59;;;7.92;54.74
40490;BME280;26196;52.302;10.572;2024-01-15T17:33:58;98889.00;;;7.93;55.24
40490;BME280;26196;52.302;10.572;2024-01-15T17:38:01;98885.88;;;7.85;54.93
40490;BME280;26196;52.302;10.572;2024-01-15T17:42:05;98895.22;;;7.89;55.96
40490;BME280;26196;52.302;10.572;2024-01-15T17:46:11;98908.22;;;7.91;54.92
40490;BME280;26196;52.302;10.572;2024-01-15T17:50:22;98914.56;;;7.83;55.79
40490;BME280;26196;52.302;10.572;2024-01-15T17:54:28;98915.19;;;7.90;55.47
40490;BME280;26196;52.302;10.572;2024-01-15T17:58:34;98919.78;;;7.83;55.01
40490;BME280;26196;52.302;10.572;2024-01-15T18:02:53;98924.06;;;7.84;55.21
40490;BME280;26196;52.302;10.572;2024-01-15T18:07:01;98930.34;;;7.80;55.28
40490;BME280;26196;52.302;10.572;2024-01-15T18:11:31;98939.31;;;7.73;54.55
40490;BME280;26196;52.302;10.572;2024-01-15T18:15:33;98936.28;;;7.62;54.46
40490;BME280;26196;52.302;10.572;2024-01-15T18:19:34;98945.75;;;7.64;55.34
40490;BME280;26196;52.302;10.572;2024-01-15T18:23:37;98950.03;;;7.65;55.31
40490;BME280;26196;52.302;10.572;2024-01-15T18:27:40;98958.59;;;7.69;55.41
40490;BME280;26196;52.302;10.572;2024-01-15T18:31:41;98954.41;;;7.65;55.56
40490;BME280;26196;52.302;10.572;2024-01-15T18:35:47;98957.00;;;7.65;56.04
40490;BME280;26196;52.302;10.572;2024-01-15T18:40:00;98980.84;;;7.76;55.37
40490;BME280;26196;52.302;10.572;2024-01-15T18:44:02;98959.06;;;7.57;54.95
40490;BME280;26196;52.302;10.572;2024-01-15T18:48:04;98977.13;;;7.61;55.40
40490;BME280;26196;52.302;10.572;2024-01-15T18:52:15;98989.34;;;7.59;55.22
40490;BME280;26196;52.302;10.572;2024-01-15T18:56:24;98993.44;;;7.65;55.81
40490;BME280;26196;52.302;10.572;2024-01-15T19:00:35;98996.84;;;7.67;55.85
40490;BME280;26196;52.302;10.572;2024-01-15T19:04:38;99011.44;;;7.71;55.61
40490;BME280;26196;52.302;10.572;2024-01-15T19:08:53;99014.16;;;7.68;55.20
40490;BME280;26196;52.302;10.572;2024-01-15T19:12:57;99010.88;;;7.63;55.16
40490;BME280;26196;52.302;10.572;2024-01-15T19:17:00;99010.22;;;7.58;55.66
40490;BME280;26196;52.302;10.572;2024-01-15T19:21:13;99020.41;;;7.64;55.14
40490;BME280;26196;52.302;10.572;2024-01-15T19:25:36;99015.22;;;7.64;55.61
40490;BME280;26196;52.302;10.572;2024-01-15T19:29:38;99019.63;;;7.62;55.46
40490;BME280;26196;52.302;10.572;2024-01-15T19:33:40;99014.59;;;7.57;55.10
40490;BME280;26196;52.302;10.572;2024-01-15T19:37:45;99018.31;;;7.50;55.31
40490;BME280;26196;52.302;10.572;2024-01-15T19:41:58;99032.19;;;7.51;55.58
40490;BME280;26196;52.302;10.572;2024-01-15T19:46:03;99020.09;;;7.50;55.07
40490;BME280;26196;52.302;10.572;2024-01-15T19:50:05;99037.31;;;7.54;55.58
40490;BME280;26196;52.302;10.572;2024-01-15T19:54:07;99036.56;;;7.50;55.25
40490;BME280;26196;52.302;10.572;2024-01-15T19:58:25;99053.25;;;7.44;55.44
40490;BME280;26196;52.302;10.572;2024-01-15T20:02:30;99060.91;;;7.49;56.08
40490;BME280;26196;52.302;10.572;2024-01-15T20:06:35;99066.03;;;7.51;55.59
40490;BME280;26196;52.302;10.572;2024-01-15T20:10:57;99087.66;;;7.53;55.95
40490;BME280;26196;52.302;10.572;2024-01-15T20:15:13;99090.25;;;7.53;55.80
40490;BME280;26196;52.302;10.572;2024-01-15T20:19:15;99083.50;;;7.49;55.86
40490;BME280;26196;52.302;10.572;2024-01-15T20:23:23;99100.06;;;7.46;55.95
40490;BME280;26196;52.302;10.572;2024-01-15T20:27:29;99088.78;;;7.45;56.09
40490;BME280;26196;52.302;10.572;2024-01-15T20:31:51;99106.91;;;7.49;56.03
40490;BME280;26196;52.302;10.572;2024-01-15T20:40:31;99108.50;;;7.53;56.73
40490;BME280;26196;52.302;10.572;2024-01-15T20:44:45;99101.31;;;7.59;56.64
40490;BME280;26196;52.302;10.572;2024-01-15T20:48:47;99108.19;;;7.60;57.04
40490;BME280;26196;52.302;10.572;2024-01-15T20:52:49;99111.78;;;7.58;57.22
40490;BME280;26196;52.302;10.572;2024-01-15T20:56:50;99096.50;;;7.49;57.33
40490;BME280;26196;52.302;10.572;2024-01-15T21:01:04;99127.91;;;7.67;57.15
40490;BME280;26196;52.302;10.572;2024-01-15T21:05:06;99127.78;;;7.71;57.60
40490;BME280;26196;52.302;10.572;2024-01-15T21:09:08;99115.06;;;7.63;57.14
40490;BME280;26196;52.302;10.572;2024-01-15T21:13:10;99124.38;;;7.68;56.56
40490;BME280;26196;52.302;10.572;2024-01-15T21:17:21;99122.56;;;7.71;57.50
40490;BME280;26196;52.302;10.572;2024-01-15T21:21:24;99113.00;;;7.71;56.61
40490;BME280;26196;52.302;10.572;2024-01-15T21:25:27;99109.63;;;7.69;56.71
40490;BME280;26196;52.302;10.572;2024-01-15T21:29:29;99103.66;;;7.65;57.14
40490;BME280;26196;52.302;10.572;2024-01-15T21:33:31;99118.44;;;7.65;57.17
40490;BME280;26196;52.302;10.572;2024-01-15T21:37:39;99129.72;;;7.65;56.36
40490;BME280;26196;52.302;10.572;2024-01-15T21:41:45;99133.34;;;7.61;56.36
40490;BME280;26196;52.302;10.572;2024-01-15T21:50:35;99144.63;;;7.62;56.54
40490;BME280;26196;52.302;10.572;2024-01-15T21:54:36;99145.50;;;7.61;56.87
40490;BME280;26196;52.302;10.572;2024-01-15T21:58:51;99148.22;;;7.58;56.70
40490;BME280;26196;52.302;10.572;2024-01-15T22:02:53;99154.75;;;7.46;55.87
40490;BME280;26196;52.302;10.572;2024-01-15T22:06:54;99155.59;;;7.47;55.69
40490;BME280;26196;52.302;10.572;2024-01-15T22:11:18;99156.53;;;7.44;56.09
40490;BME280;26196;52.302;10.572;2024-01-15T22:15:20;99155.59;;;7.47;56.23
40490;BME280;26196;52.302;10.572;2024-01-15T22:19:21;99152.19;;;7.44;56.22
40490;BME280;26196;52.302;10.572;2024-01-15T22:23:23;99162.72;;;7.41;55.51
40490;BME280;26196;52.302;10.572;2024-01-15T22:27:24;99150.00;;;7.32;56.06
40490;BME280;26196;52.302;10.572;2024-01-15T22:31:26;99167.19;;;7.38;56.12